Time;durP1;ratioP1;P1;durP2;ratioP2;P2;SDS_P1;SDS_P2;PMS_P1;PMS_P2;Temp;Humidity;BMP_temperature;BMP_pressure;BME280_temperature;BME280_humidity;BME280_pressure;Samples;Min_cycle;Max_cycle;Signal;HPM_P1;HPM_P2
2023/01/07 00:01:37;;;;;;;3.60;1.25;;;14.70;1.00;;;;;;5112264;28;20081;-40
2023/01/07 00:04:06;;;;;;;5.07;1.52;;;14.70;1.00;;;;;;5114919;28;20043;-39
2023/01/07 00:06:35;;;;;;;5.53;1.40;;;14.70;1.00;;;;;;5115161;28;20052;-39
2023/01/07 00:09:04;;;;;;;5.95;1.98;;;14.70;1.00;;;;;;5115467;28;20106;-38
2023/01/07 00:11:33;;;;;;;9.40;1.52;;;14.70;1.00;;;;;;5115349;28;20110;-39
2023/01/07 00:14:01;;;;;;;2.47;1.02;;;14.70;1.00;;;;;;5096839;28;20046;-40
2023/01/07 00:16:30;;;;;;;19.63;2.35;;;14.70;1.00;;;;;;5115048;28;20043;-40
2023/01/07 00:18:59;;;;;;;6.50;1.63;;;14.70;1.00;;;;;;5115061;28;20062;-38
2023/01/07 00:21:27;;;;;;;4.22;1.85;;;14.70;1.00;;;;;;5113888;28;20042;-37
2023/01/07 00:23:56;;;;;;;5.45;1.45;;;14.70;1.00;;;;;;5114659;28;20410;-39
2023/01/07 00:26:25;;;;;;;1.90;1.40;;;14.70;1.00;;;;;;5096550;28;20061;-38
2023/01/07 00:28:53;;;;;;;7.70;1.80;;;14.70;1.00;;;;;;5096604;28;20054;-40
2023/01/07 00:31:22;;;;;;;5.20;1.80;;;14.70;1.00;;;;;;5114838;28;20069;-36
2023/01/07 00:36:23;;;;;;;;;;;14.70;1.00;;;;;;5115182;28;20055;-39
2023/01/07 00:38:55;;;;;;;5.22;2.40;;;14.70;1.00;;;;;;5114877;28;20398;-34
2023/01/07 00:41:22;;;;;;;5.78;1.35;;;14.70;1.00;;;;;;5114657;28;20050;-38
2023/01/07 00:43:49;;;;;;;3.08;1.70;;;14.70;1.00;;;;;;5106587;28;20044;-35
2023/01/07 00:46:16;;;;;;;3.97;1.30;;;14.70;1.00;;;;;;5094048;28;20111;-39
2023/01/07 00:48:44;;;;;;;3.97;1.40;;;14.70;1.00;;;;;;5076040;28;20067;-39
2023/01/07 00:51:13;;;;;;;4.90;1.70;;;14.70;1.00;;;;;;5094050;28;20502;-41
2023/01/07 00:53:41;;;;;;;1.63;1.13;;;14.70;1.00;;;;;;5075737;28;20177;-41
2023/01/07 00:56:13;;;;;;;6.00;1.55;;;14.70;1.00;;;;;;5075658;28;20051;-37
2023/01/07 00:58:41;;;;;;;3.85;1.60;;;14.70;1.00;;;;;;5075962;28;20048;-39
2023/01/07 01:01:09;;;;;;;3.08;1.00;;;14.70;1.00;;;;;;5075586;28;20048;-38
2023/01/07 01:03:37;;;;;;;4.07;1.00;;;14.70;1.00;;;;;;5075377;28;20048;-36
2023/01/07 01:06:12;;;;;;;4.55;1.23;;;14.70;1.00;;;;;;5093709;28;20040;-40
2023/01/07 01:08:43;;;;;;;7.25;2.22;;;14.70;1.00;;;;;;5093698;28;20036;-38
2023/01/07 01:11:12;;;;;;;4.03;2.05;;;14.70;1.00;;;;;;5075494;28;20134;-37
2023/01/07 01:13:40;;;;;;;3.25;1.45;;;14.70;1.00;;;;;;5093499;28;20050;-37
2023/01/07 01:16:13;;;;;;;4.57;1.40;;;14.60;1.00;;;;;;5075493;28;20135;-39
2023/01/07 01:18:40;;;;;;;6.30;1.90;;;14.60;1.00;;;;;;5093635;28;20050;-39
2023/01/07 01:21:09;;;;;;;6.45;1.67;;;14.60;1.00;;;;;;5093468;28;20089;-37
2023/01/07 01:23:37;;;;;;;4.10;1.33;;;14.70;1.00;;;;;;5093204;28;20044;-37
2023/01/07 01:26:09;;;;;;;2.90;0.88;;;14.60;1.00;;;;;;5075018;28;20048;-37
2023/01/07 01:28:37;;;;;;;7.45;1.52;;;14.60;1.00;;;;;;5075244;28;20140;-37
2023/01/07 01:31:05;;;;;;;3.17;1.13;;;14.60;1.00;;;;;;5075071;28;20378;-38
2023/01/07 01:33:43;;;;;;;5.82;1.38;;;14.60;1.00;;;;;;5092656;28;20036;-36
2023/01/07 01:36:11;;;;;;;3.33;1.10;;;14.60;1.00;;;;;;5074860;28;20516;-39
2023/01/07 01:38:39;;;;;;;4.63;1.23;;;14.60;1.00;;;;;;5075098;28;20039;-36
2023/01/07 01:41:06;;;;;;;2.17;1.15;;;14.60;1.00;;;;;;5074924;28;20040;-40
2023/01/07 01:43:40;;;;;;;6.00;1.20;;;14.60;1.00;;;;;;5074693;28;20434;-41
2023/01/07 01:46:16;;;;;;;;;;;14.60;1.00;;;;;;5074922;28;20040;-36
2023/01/07 01:48:51;;;;;;;3.78;1.02;;;14.60;1.00;;;;;;5074875;28;19951;-38
2023/01/07 01:51:23;;;;;;;4.78;1.90;;;14.60;1.00;;;;;;5092993;28;20460;-37
2023/01/07 01:53:51;;;;;;;4.03;1.42;;;14.60;1.00;;;;;;5074505;28;20040;-40
2023/01/07 01:56:23;;;;;;;4.68;1.48;;;14.60;1.00;;;;;;5074543;28;20499;-39
2023/01/07 01:59:01;;;;;;;4.45;1.23;;;14.60;1.00;;;;;;5074636;28;20323;-41
2023/01/07 02:01:32;;;;;;;3.67;1.42;;;14.60;1.00;;;;;;5074588;28;20040;-40
2023/01/07 02:04:06;;;;;;;;;;;14.60;1.00;;;;;;5074696;28;20052;-34
2023/01/07 02:06:35;;;;;;;5.75;1.27;;;14.60;1.00;;;;;;5074410;28;20402;-37
2023/01/07 02:09:02;;;;;;;2.85;1.30;;;14.60;1.00;;;;;;5074512;28;20044;-35
2023/01/07 02:11:30;;;;;;;3.30;1.27;;;14.60;1.00;;;;;;5074296;28;20070;-35
2023/01/07 02:14:34;;;;;;;4.90;1.05;;;14.60;1.00;;;;;;5073974;28;20560;-39
2023/01/07 02:17:15;;;;;;;;;;;14.50;1.00;;;;;;5074612;28;20052;-40
2023/01/07 02:20:10;;;;;;;3.33;1.38;;;14.60;1.00;;;;;;5074191;28;19927;-35
2023/01/07 02:23:14;;;;;;;4.55;1.20;;;14.50;1.00;;;;;;5092126;28;20059;-39
2023/01/07 02:26:11;;;;;;;3.88;1.25;;;14.60;1.00;;;;;;5024234;28;20079;-37
2023/01/07 02:29:11;;;;;;;5.80;1.33;;;14.50;1.00;;;;;;5074072;28;20048;-37
2023/01/07 02:32:15;;;;;;;4.90;0.93;;;14.50;1.00;;;;;;5074075;28;20051;-37
2023/01/07 02:34:55;;;;;;;7.85;1.10;;;14.50;1.00;;;;;;5092153;28;20043;-36
2023/01/07 02:37:26;;;;;;;4.32;1.15;;;14.50;1.00;;;;;;5074064;28;20044;-38
2023/01/07 02:39:58;;;;;;;2.75;1.02;;;14.50;1.00;;;;;;5074069;28;20047;-37
2023/01/07 02:42:49;;;;;;;5.20;1.45;;;14.50;1.00;;;;;;5091512;28;20407;-38
2023/01/07 02:45:32;;;;;;;4.30;1.20;;;14.50;1.00;;;;;;5072790;28;20053;-37
2023/01/07 02:48:02;;;;;;;5.93;1.30;;;14.50;1.00;;;;;;5073732;28;20476;-41
2023/01/07 02:50:30;;;;;;;4.03;1.27;;;14.60;1.00;;;;;;5074147;28;20044;-36
2023/01/07 02:52:56;;;;;;;4.07;2.10;;;14.50;1.00;;;;;;5085112;28;20055;-40
2023/01/07 02:55:43;;;;;;;3.25;1.02;;;14.50;1.00;;;;;;5090791;28;20052;-40
2023/01/07 02:58:39;;;;;;;3.97;1.10;;;14.50;1.00;;;;;;5076659;28;20046;-39
2023/01/07 03:01:22;;;;;;;8.27;1.92;;;14.50;1.00;;;;;;5091854;28;20123;-36
2023/01/07 03:04:14;;;;;;;6.05;1.20;;;14.50;1.00;;;;;;5091648;28;20047;-39
2023/01/07 03:07:23;;;;;;;2.78;0.93;;;14.50;1.00;;;;;;5078719;28;20052;-40
2023/01/07 03:10:15;;;;;;;5.10;1.15;;;14.50;1.00;;;;;;5058555;28;20384;-40
2023/01/07 03:12:48;;;;;;;3.42;0.90;;;14.50;1.00;;;;;;5073392;28;20074;-40
2023/01/07 03:15:26;;;;;;;2.20;1.35;;;14.50;1.00;;;;;;5073607;28;20052;-39
2023/01/07 03:18:07;;;;;;;4.15;1.10;;;14.50;1.00;;;;;;5073652;28;20059;-38
2023/01/07 03:20:37;;;;;;;3.10;0.93;;;14.50;1.00;;;;;;5073669;28;20631;-39
2023/01/07 03:23:08;;;;;;;5.55;1.65;;;14.50;1.00;;;;;;5073380;28;20503;-39
2023/01/07 03:25:39;;;;;;;3.35;1.17;;;14.50;1.00;;;;;;5073316;28;20039;-38
2023/01/07 03:28:08;;;;;;;2.03;0.75;;;14.50;1.00;;;;;;5073475;28;20051;-39
2023/01/07 03:30:37;;;;;;;1.67;0.90;;;14.50;1.00;;;;;;5073447;28;20044;-37
2023/01/07 03:33:15;;;;;;;3.38;1.15;;;14.50;1.00;;;;;;5091373;28;20072;-36
2023/01/07 03:35:46;;;;;;;2.53;1.23;;;14.50;1.00;;;;;;5073331;28;20071;-39
2023/01/07 03:38:15;;;;;;;3.22;1.08;;;14.50;1.00;;;;;;5091694;28;20044;-39
2023/01/07 03:40:42;;;;;;;2.55;1.27;;;14.50;1.00;;;;;;5073435;28;20055;-40
2023/01/07 03:43:13;;;;;;;5.32;1.35;;;14.50;1.00;;;;;;5073051;28;20536;-37
2023/01/07 03:45:41;;;;;;;3.55;1.50;;;14.50;1.00;;;;;;5073264;28;20044;-40
2023/01/07 03:48:08;;;;;;;3.08;1.33;;;14.50;1.00;;;;;;5073356;28;20040;-41
2023/01/07 03:50:37;;;;;;;3.60;1.50;;;14.50;1.00;;;;;;5073220;28;20498;-39
2023/01/07 03:53:05;;;;;;;3.55;0.90;;;14.50;1.00;;;;;;5073002;28;20101;-37
2023/01/07 03:55:34;;;;;;;7.47;1.13;;;14.50;1.00;;;;;;5091721;28;20048;-37
2023/01/07 03:58:01;;;;;;;3.85;1.10;;;14.50;1.00;;;;;;5076980;28;20139;-39
2023/01/07 04:00:27;;;;;;;2.08;0.82;;;14.50;1.00;;;;;;5076950;28;20093;-39
2023/01/07 04:03:02;;;;;;;2.80;1.08;;;14.50;1.00;;;;;;5076577;28;20406;-37
2023/01/07 04:05:34;;;;;;;3.33;1.60;;;14.50;1.00;;;;;;5076766;28;20127;-39
2023/01/07 04:08:01;;;;;;;3.15;1.35;;;14.50;1.00;;;;;;5076747;28;20071;-38
2023/01/07 04:10:32;;;;;;;4.07;0.57;;;14.50;1.00;;;;;;5076696;28;20099;-42
2023/01/07 04:12:58;;;;;;;1.77;0.98;;;14.50;1.00;;;;;;5076347;28;20066;-35
2023/01/07 04:15:25;;;;;;;4.05;1.67;;;14.50;1.00;;;;;;5076606;28;20055;-38
2023/01/07 04:17:52;;;;;;;1.80;1.27;;;14.50;1.00;;;;;;5076614;28;20068;-38
2023/01/07 04:20:19;;;;;;;5.35;1.10;;;14.50;1.00;;;;;;5076438;28;20465;-36
2023/01/07 04:22:46;;;;;;;3.40;1.65;;;14.50;1.00;;;;;;5094401;28;20044;-36
2023/01/07 04:25:13;;;;;;;3.03;1.38;;;14.50;1.00;;;;;;5094423;28;20085;-35
2023/01/07 04:27:40;;;;;;;4.03;1.15;;;14.50;1.00;;;;;;5076407;28;20399;-37
2023/01/07 04:30:08;;;;;;;2.83;1.15;;;14.50;1.00;;;;;;5076345;28;20505;-36
2023/01/07 04:32:34;;;;;;;3.63;1.30;;;14.50;1.00;;;;;;5059632;28;20157;-37
2023/01/07 04:35:01;;;;;;;6.65;1.27;;;14.50;1.00;;;;;;5076062;28;20048;-38
2023/01/07 04:37:29;;;;;;;3.58;1.30;;;14.50;1.00;;;;;;5076219;28;20415;-35
2023/01/07 04:39:56;;;;;;;3.83;1.20;;;14.50;1.00;;;;;;5076281;28;20143;-38
2023/01/07 04:42:23;;;;;;;7.47;1.50;;;14.50;1.00;;;;;;5094165;28;20514;-37
2023/01/07 04:44:50;;;;;;;3.92;2.08;;;14.50;1.00;;;;;;5076033;28;20055;-36
2023/01/07 04:47:17;;;;;;;3.90;0.80;;;14.50;1.00;;;;;;5094179;28;20047;-38
2023/01/07 04:49:44;;;;;;;1.48;0.80;;;14.50;1.00;;;;;;5075895;28;20051;-36
2023/01/07 04:52:11;;;;;;;3.47;1.00;;;14.50;1.00;;;;;;5075936;28;20047;-41
2023/01/07 04:54:38;;;;;;;2.45;0.90;;;14.50;1.00;;;;;;5093844;28;20067;-38
2023/01/07 04:57:05;;;;;;;2.05;0.82;;;14.40;1.00;;;;;;5075738;28;20075;-36
2023/01/07 04:59:32;;;;;;;2.30;1.50;;;14.50;1.00;;;;;;5075852;28;20522;-38
2023/01/07 05:02:01;;;;;;;4.60;1.33;;;14.50;1.00;;;;;;5075606;28;20044;-40
2023/01/07 05:04:28;;;;;;;3.17;0.80;;;14.50;1.00;;;;;;5075457;28;20109;-37
2023/01/07 05:06:56;;;;;;;3.10;0.90;;;14.40;1.00;;;;;;5075145;28;20460;-37
2023/01/07 05:09:24;;;;;;;1.48;1.00;;;14.50;1.00;;;;;;5075308;28;20125;-41
2023/01/07 05:11:51;;;;;;;1.20;0.70;;;14.50;1.00;;;;;;5093713;28;20032;-39
2023/01/07 05:14:18;;;;;;;2.78;1.00;;;14.50;1.00;;;;;;5093539;28;20074;-35
2023/01/07 05:16:49;;;;;;;3.78;0.60;;;14.50;1.00;;;;;;5075344;28;20040;-39
2023/01/07 05:19:16;;;;;;;3.78;1.15;;;14.40;1.00;;;;;;5075378;28;20047;-39
2023/01/07 05:21:46;;;;;;;1.30;0.60;;;14.50;1.00;;;;;;5075387;28;20051;-35
2023/01/07 05:24:14;;;;;;;2.10;1.00;;;14.40;1.00;;;;;;5075039;28;20419;-36
2023/01/07 05:26:41;;;;;;;3.05;1.00;;;14.40;1.00;;;;;;5074851;28;20062;-39
2023/01/07 05:29:09;;;;;;;1.42;0.77;;;14.40;1.00;;;;;;5075169;28;20048;-39
2023/01/07 05:31:37;;;;;;;1.92;0.73;;;14.40;1.00;;;;;;5075231;28;20499;-39
2023/01/07 05:34:04;;;;;;;1.20;0.73;;;14.40;1.00;;;;;;5074890;28;20102;-36
2023/01/07 05:36:31;;;;;;;3.55;1.10;;;14.50;1.00;;;;;;5074951;28;20468;-39
2023/01/07 05:38:58;;;;;;;2.58;1.00;;;14.40;1.00;;;;;;5075094;28;20048;-36
2023/01/07 05:41:25;;;;;;;3.53;0.88;;;14.50;1.00;;;;;;5075276;28;20059;-35
2023/01/07 05:43:52;;;;;;;3.45;1.15;;;14.50;1.00;;;;;;5092787;28;20048;-34
2023/01/07 05:46:18;;;;;;;3.20;1.15;;;14.50;1.00;;;;;;5092857;28;20040;-39
2023/01/07 05:48:45;;;;;;;1.75;0.98;;;14.40;1.00;;;;;;5093067;28;20040;-39
2023/01/07 05:51:12;;;;;;;2.20;0.90;;;14.40;1.00;;;;;;5093014;28;20395;-38
2023/01/07 05:53:39;;;;;;;2.17;1.08;;;14.50;1.00;;;;;;5092619;28;20036;-36
2023/01/07 05:56:06;;;;;;;3.53;1.00;;;14.40;1.00;;;;;;5092768;28;20039;-38
2023/01/07 05:58:32;;;;;;;1.15;0.77;;;14.50;1.00;;;;;;5092838;28;20130;-35
2023/01/07 06:00:59;;;;;;;3.13;1.00;;;14.50;1.00;;;;;;5092838;28;20036;-42
2023/01/07 06:03:26;;;;;;;1.17;0.60;;;14.40;1.00;;;;;;5092413;28;20122;-38
2023/01/07 06:05:53;;;;;;;1.00;0.60;;;14.40;1.00;;;;;;5092519;28;20127;-40
2023/01/07 06:08:19;;;;;;;1.58;0.68;;;14.50;1.00;;;;;;5074845;28;20105;-39
2023/01/07 06:10:46;;;;;;;1.95;0.90;;;14.40;1.00;;;;;;5092386;28;20495;-39
2023/01/07 06:13:13;;;;;;;2.05;0.60;;;14.40;1.00;;;;;;5092323;28;20048;-39
2023/01/07 06:15:40;;;;;;;2.25;1.13;;;14.40;1.00;;;;;;5092413;28;20452;-39
2023/01/07 06:18:06;;;;;;;2.35;1.35;;;14.40;1.00;;;;;;5092598;28;20488;-38
2023/01/07 06:20:33;;;;;;;3.05;1.20;;;14.50;1.00;;;;;;5073412;28;20059;-39
2023/01/07 06:23:03;;;;;;;1.65;0.80;;;14.40;1.00;;;;;;5092327;28;20040;-37
2023/01/07 06:25:30;;;;;;;4.47;0.95;;;14.40;1.00;;;;;;5092147;28;20044;-40
2023/01/07 06:27:57;;;;;;;1.48;0.60;;;14.50;1.00;;;;;;5092285;28;20044;-40
2023/01/07 06:30:24;;;;;;;2.13;1.08;;;14.50;1.00;;;;;;5092465;28;20040;-37
2023/01/07 06:32:51;;;;;;;3.45;1.10;;;14.50;1.00;;;;;;5092093;28;20040;-39
2023/01/07 06:35:18;;;;;;;1.60;0.85;;;14.40;1.00;;;;;;5092163;28;20037;-38
2023/01/07 06:37:44;;;;;;;4.95;1.50;;;14.50;1.00;;;;;;5092291;28;20071;-41
2023/01/07 06:40:11;;;;;;;3.10;1.13;;;14.40;1.00;;;;;;5091975;28;20109;-37
2023/01/07 06:42:38;;;;;;;2.20;0.93;;;14.50;1.00;;;;;;5091921;28;20562;-39
2023/01/07 06:45:05;;;;;;;2.53;0.98;;;14.40;1.00;;;;;;5092050;28;20044;-34
2023/01/07 06:47:33;;;;;;;2.88;1.17;;;14.40;1.00;;;;;;5092065;28;20149;-35
2023/01/07 06:49:59;;;;;;;3.67;1.20;;;14.40;1.00;;;;;;5092058;28;20043;-39
2023/01/07 06:52:26;;;;;;;2.20;0.95;;;14.40;1.00;;;;;;5091799;28;20044;-37
2023/01/07 06:54:53;;;;;;;2.63;1.23;;;14.40;1.00;;;;;;5091708;28;20044;-41
2023/01/07 06:57:20;;;;;;;1.33;0.70;;;14.40;1.00;;;;;;5091970;28;20051;-38
2023/01/07 06:59:46;;;;;;;3.95;0.88;;;14.40;1.00;;;;;;5092041;28;20048;-39
2023/01/07 07:02:19;;;;;;;1.48;0.85;;;14.40;1.00;;;;;;5091885;28;20582;-37
2023/01/07 07:04:45;;;;;;;3.00;1.15;;;14.40;1.00;;;;;;5091752;28;20079;-37
2023/01/07 07:07:13;;;;;;;1.92;0.95;;;14.40;1.00;;;;;;5091642;28;20106;-37
2023/01/07 07:09:39;;;;;;;1.92;1.10;;;14.40;1.00;;;;;;5091879;28;20044;-41
2023/01/07 07:12:07;;;;;;;3.40;1.08;;;14.50;1.00;;;;;;5091817;28;20589;-36
2023/01/07 07:14:34;;;;;;;3.33;1.27;;;14.50;1.00;;;;;;5091538;28;20040;-39
2023/01/07 07:17:01;;;;;;;3.95;1.17;;;14.40;1.00;;;;;;5091733;28;20134;-41
2023/01/07 07:19:28;;;;;;;2.70;1.38;;;14.40;1.00;;;;;;5091800;28;20461;-37
2023/01/07 07:21:55;;;;;;;4.88;1.52;;;14.40;1.00;;;;;;5091579;28;20101;-41
2023/01/07 07:24:22;;;;;;;1.67;1.13;;;14.40;1.00;;;;;;5091533;28;20044;-39
2023/01/07 07:26:49;;;;;;;1.83;1.10;;;14.40;1.00;;;;;;5091417;28;20040;-37
2023/01/07 07:29:16;;;;;;;2.97;1.13;;;14.40;1.00;;;;;;5091770;28;20036;-40
2023/01/07 07:31:43;;;;;;;3.00;1.90;;;14.40;1.00;;;;;;5094089;28;20448;-36
2023/01/07 07:34:10;;;;;;;2.92;1.27;;;14.40;1.00;;;;;;5095337;28;20387;-36
2023/01/07 07:36:37;;;;;;;2.08;1.08;;;14.50;1.00;;;;;;5095468;28;20040;-38
2023/01/07 07:39:03;;;;;;;4.35;1.60;;;14.40;1.00;;;;;;5095491;28;20545;-39
2023/01/07 07:41:30;;;;;;;4.47;1.42;;;14.40;1.00;;;;;;5095309;28;20123;-34
2023/01/07 07:43:59;;;;;;;2.88;1.27;;;14.40;1.00;;;;;;5076872;28;20105;-36
2023/01/07 07:46:25;;;;;;;2.67;1.30;;;14.40;1.00;;;;;;5095127;28;20085;-41
2023/01/07 07:48:52;;;;;;;2.97;1.13;;;14.40;1.00;;;;;;5091887;28;20081;-38
2023/01/07 07:51:20;;;;;;;1.60;1.15;;;14.40;1.00;;;;;;5088609;28;20602;-36
2023/01/07 07:53:47;;;;;;;2.42;1.38;;;14.40;1.00;;;;;;5097797;28;20035;-37
2023/01/07 07:56:13;;;;;;;2.72;1.63;;;14.40;1.00;;;;;;5111421;28;20118;-36
2023/01/07 07:58:41;;;;;;;4.07;1.50;;;14.40;1.00;;;;;;5109285;28;20044;-37
2023/01/07 08:01:09;;;;;;;4.10;2.90;;;14.40;1.00;;;;;;5113698;28;20047;-39
2023/01/07 08:03:36;;;;;;;6.47;3.40;;;14.40;1.00;;;;;;5115045;28;20043;-39
2023/01/07 08:06:04;;;;;;;4.32;2.70;;;14.40;1.00;;;;;;5115261;28;20051;-41
2023/01/07 08:08:31;;;;;;;9.35;3.03;;;14.40;1.00;;;;;;5100895;28;20040;-38
2023/01/07 08:10:58;;;;;;;4.57;2.50;;;14.40;1.00;;;;;;5087956;28;20479;-40
2023/01/07 08:13:24;;;;;;;6.68;2.88;;;14.40;1.00;;;;;;5087651;28;20578;-37
2023/01/07 08:15:51;;;;;;;4.68;2.55;;;14.40;1.00;;;;;;5084890;28;20042;-39
2023/01/07 08:18:18;;;;;;;4.50;2.63;;;14.40;1.00;;;;;;5082462;28;20052;-39
2023/01/07 08:20:45;;;;;;;11.32;2.75;;;14.50;1.00;;;;;;5094130;28;20507;-42
2023/01/07 08:23:12;;;;;;;3.53;2.15;;;14.50;1.00;;;;;;5090484;28;20044;-39
2023/01/07 08:25:39;;;;;;;4.55;2.35;;;14.50;1.00;;;;;;5088404;28;20040;-38
2023/01/07 08:28:06;;;;;;;4.53;2.33;;;14.50;1.00;;;;;;5086204;22;20452;-38
2023/01/07 08:30:33;;;;;;;3.83;1.70;;;14.50;1.00;;;;;;5075192;28;20084;-38
2023/01/07 08:33:01;;;;;;;3.47;2.63;;;14.50;1.00;;;;;;5057718;28;20078;-38
2023/01/07 08:35:28;;;;;;;6.60;2.70;;;14.50;1.00;;;;;;5071704;28;20510;-38
2023/01/07 08:38:07;;;;;;;5.03;2.00;;;14.50;1.00;;;;;;5055052;28;20412;-38
2023/01/07 08:40:34;;;;;;;6.38;1.85;;;14.50;1.00;;;;;;5056211;28;20354;-37
2023/01/07 08:43:03;;;;;;;4.45;2.20;;;14.50;1.00;;;;;;5031504;28;20033;-37
2023/01/07 08:45:31;;;;;;;2.90;1.60;;;14.50;1.00;;;;;;5049603;28;20044;-36
2023/01/07 08:47:58;;;;;;;4.07;1.85;;;14.50;1.00;;;;;;5035155;28;20037;-37
2023/01/07 08:50:29;;;;;;;3.70;1.83;;;14.50;1.00;;;;;;5045327;28;20036;-38
2023/01/07 08:52:56;;;;;;;3.45;1.63;;;14.50;1.00;;;;;;5050584;28;20692;-36
2023/01/07 08:55:24;;;;;;;2.17;1.30;;;14.50;1.00;;;;;;5063869;28;20044;-36
2023/01/07 08:57:51;;;;;;;2.72;1.55;;;14.60;1.00;;;;;;5050078;28;20048;-37
2023/01/07 09:00:18;;;;;;;4.13;2.00;;;14.60;1.00;;;;;;5050024;28;20037;-38
2023/01/07 09:02:45;;;;;;;2.05;1.05;;;14.60;1.00;;;;;;5051409;28;20075;-37
2023/01/07 09:05:12;;;;;;;5.05;1.98;;;14.60;1.00;;;;;;5050915;28;20112;-37
2023/01/07 09:07:39;;;;;;;3.55;1.50;;;14.60;1.00;;;;;;5058974;28;20051;-37
2023/01/07 09:10:08;;;;;;;2.95;2.08;;;14.60;1.00;;;;;;5064533;28;20060;-37
2023/01/07 09:12:35;;;;;;;5.28;1.80;;;14.60;1.00;;;;;;5059609;28;20778;-38
2023/01/07 09:15:03;;;;;;;4.00;1.73;;;14.60;1.00;;;;;;5043749;28;20065;-38
2023/01/07 09:17:30;;;;;;;2.55;1.48;;;14.60;1.00;;;;;;5070423;28;20090;-38
2023/01/07 09:19:56;;;;;;;2.28;1.60;;;14.60;1.00;;;;;;5073003;28;20048;-38
2023/01/07 09:22:23;;;;;;;4.15;1.73;;;14.60;1.00;;;;;;5073200;28;20043;-39
2023/01/07 09:24:50;;;;;;;3.53;1.33;;;14.60;1.00;;;;;;5073069;28;20041;-38
2023/01/07 09:27:17;;;;;;;2.08;1.23;;;14.60;1.00;;;;;;5072916;28;20072;-36
2023/01/07 09:29:43;;;;;;;5.65;2.63;;;14.60;1.00;;;;;;5073056;28;20550;-37
2023/01/07 09:32:10;;;;;;;2.83;1.75;;;14.60;1.00;;;;;;5073002;28;20044;-37
2023/01/07 09:34:37;;;;;;;3.67;1.80;;;14.60;1.00;;;;;;5072195;28;20044;-37
2023/01/07 09:37:05;;;;;;;7.50;1.60;;;14.60;1.00;;;;;;5072521;28;20139;-37
2023/01/07 09:39:32;;;;;;;3.08;1.55;;;14.60;1.00;;;;;;5072862;28;20508;-37
2023/01/07 09:42:11;;;;;;;4.57;2.00;;;14.60;1.00;;;;;;5072901;28;20496;-37
2023/01/07 09:45:09;;;;;;;3.28;1.20;;;14.60;1.00;;;;;;5072709;28;20510;-40
2023/01/07 09:47:38;;;;;;;4.15;1.40;;;14.60;1.00;;;;;;5002368;28;20060;-37
2023/01/07 09:50:44;;;;;;;7.45;1.67;;;14.60;1.00;;;;;;5056010;28;20119;-36
2023/01/07 09:53:21;;;;;;;2.25;1.30;;;14.60;1.00;;;;;;5014503;28;20156;-37
2023/01/07 09:55:51;;;;;;;1.77;1.05;;;14.60;1.00;;;;;;5057213;28;20041;-37
2023/01/07 09:58:46;;;;;;;3.40;1.45;;;14.50;1.00;;;;;;5049430;28;20046;-37
2023/01/07 10:01:16;;;;;;;3.17;1.13;;;14.50;1.00;;;;;;5037811;28;20044;-38
2023/01/07 10:04:07;;;;;;;2.00;1.38;;;14.50;1.00;;;;;;5062570;28;20041;-37
2023/01/07 10:07:00;;;;;;;3.35;1.08;;;14.60;1.00;;;;;;5072116;28;20135;-37
2023/01/07 10:09:37;;;;;;;3.53;1.67;;;14.60;1.00;;;;;;5072287;28;20096;-38
2023/01/07 10:12:14;;;;;;;4.20;1.30;;;14.60;1.00;;;;;;5066768;28;20047;-37
2023/01/07 10:15:01;;;;;;;4.45;1.50;;;14.60;1.00;;;;;;5058225;28;20499;-38
2023/01/07 10:17:58;;;;;;;2.75;1.15;;;14.60;1.00;;;;;;5056963;28;20041;-38
2023/01/07 10:20:56;;;;;;;2.28;1.00;;;14.60;1.00;;;;;;5052709;28;20052;-39
2023/01/07 10:23:27;;;;;;;2.25;1.20;;;14.60;1.00;;;;;;5056311;28;20037;-36
2023/01/07 10:25:55;;;;;;;2.92;1.50;;;14.60;1.00;;;;;;5052201;28;20044;-36
2023/01/07 10:28:39;;;;;;;1.60;1.10;;;14.60;1.00;;;;;;5033962;28;20508;-37
2023/01/07 10:31:15;;;;;;;2.47;1.15;;;14.60;1.00;;;;;;5052143;28;20036;-37
2023/01/07 10:33:43;;;;;;;1.60;1.17;;;14.60;1.00;;;;;;5051574;28;20041;-37
2023/01/07 10:36:33;;;;;;;4.57;1.10;;;14.60;1.00;;;;;;5045277;28;20043;-38
2023/01/07 10:39:35;;;;;;;2.60;1.25;;;14.60;1.00;;;;;;5056621;28;20064;-37
2023/01/07 10:42:10;;;;;;;2.95;1.70;;;14.60;1.00;;;;;;5048231;28;20045;-38
2023/01/07 10:44:52;;;;;;;5.88;1.33;;;14.60;1.00;;;;;;5061237;28;20048;-38
2023/01/07 10:47:47;;;;;;;2.10;0.88;;;14.60;1.00;;;;;;5071699;28;20071;-38
2023/01/07 10:50:59;;;;;;;2.83;1.35;;;14.60;1.00;;;;;;5053870;28;20047;-38
2023/01/07 10:53:45;;;;;;;2.13;0.95;;;14.60;1.00;;;;;;5041361;28;20056;-37
2023/01/07 10:56:27;;;;;;;2.35;0.77;;;14.50;1.00;;;;;;5071732;28;20052;-37
2023/01/07 10:58:59;;;;;;;1.73;0.95;;;14.60;1.00;;;;;;5071802;28;20483;-39
2023/01/07 11:01:39;;;;;;;2.17;0.93;;;14.60;1.00;;;;;;5071626;28;20040;-37
2023/01/07 11:04:18;;;;;;;0.95;0.68;;;14.60;1.00;;;;;;5071440;28;20056;-38
2023/01/07 11:06:57;;;;;;;2.17;1.10;;;14.60;1.00;;;;;;5077078;28;20040;-36
2023/01/07 11:09:37;;;;;;;2.17;1.08;;;14.60;1.00;;;;;;5078397;28;20551;-37
2023/01/07 11:12:33;;;;;;;1.75;0.70;;;14.60;1.00;;;;;;5078250;28;20090;-38
2023/01/07 11:15:05;;;;;;;3.08;0.93;;;14.60;1.00;;;;;;5078141;28;20080;-36
2023/01/07 11:17:40;;;;;;;2.13;1.15;;;14.60;1.00;;;;;;5078135;28;20040;-37
2023/01/07 11:20:07;;;;;;;1.85;0.90;;;14.60;1.00;;;;;;5078186;28;20045;-38
2023/01/07 11:22:38;;;;;;;1.17;0.60;;;14.60;1.00;;;;;;5078146;28;20044;-37
2023/01/07 11:25:23;;;;;;;2.53;1.10;;;14.60;1.00;;;;;;5078185;28;20474;-38
2023/01/07 11:27:50;;;;;;;2.30;0.70;;;14.60;1.00;;;;;;5077817;28;20063;-38
2023/01/07 11:30:24;;;;;;;3.30;0.82;;;14.60;1.00;;;;;;5060381;28;20048;-38
2023/01/07 11:33:05;;;;;;;3.17;0.88;;;14.60;1.00;;;;;;5078102;28;20052;-38
2023/01/07 11:35:32;;;;;;;3.25;0.85;;;14.60;1.00;;;;;;5078273;28;20044;-37
2023/01/07 11:37:59;;;;;;;1.90;0.95;;;14.60;1.00;;;;;;5078118;28;20044;-37
2023/01/07 11:40:28;;;;;;;1.92;0.90;;;14.60;1.00;;;;;;5077968;28;20040;-37
2023/01/07 11:43:01;;;;;;;2.03;1.38;;;14.60;1.00;;;;;;5077835;28;20048;-37
2023/01/07 11:45:35;;;;;;;1.83;0.82;;;14.60;1.00;;;;;;5078135;28;20044;-37
2023/01/07 11:48:04;;;;;;;1.75;0.65;;;14.60;1.00;;;;;;5077899;28;20487;-38
2023/01/07 11:50:56;;;;;;;1.85;1.10;;;14.60;1.00;;;;;;5077979;28;20480;-38
2023/01/07 11:53:37;;;;;;;2.38;0.65;;;14.60;1.00;;;;;;5077674;28;20055;-37
2023/01/07 11:56:13;;;;;;;1.23;0.60;;;14.60;1.00;;;;;;5077997;28;20037;-38
2023/01/07 11:58:44;;;;;;;2.42;0.65;;;14.60;1.00;;;;;;5077897;28;20036;-38
2023/01/07 12:01:15;;;;;;;1.83;0.73;;;14.60;1.00;;;;;;5077789;28;20044;-38
2023/01/07 12:04:00;;;;;;;2.75;0.75;;;14.60;1.00;;;;;;5077702;28;20119;-38
2023/01/07 12:06:31;;;;;;;1.40;0.60;;;14.60;1.00;;;;;;5077858;28;20048;-38
2023/01/07 12:09:13;;;;;;;1.98;0.90;;;14.60;1.00;;;;;;5077852;28;20051;-37
2023/01/07 12:11:42;;;;;;;2.30;1.00;;;14.60;1.00;;;;;;5077668;28;20045;-37
2023/01/07 12:14:18;;;;;;;2.63;0.80;;;14.60;1.00;;;;;;5077515;28;20044;-37
2023/01/07 12:16:46;;;;;;;1.60;0.55;;;14.60;1.00;;;;;;5076780;28;20111;-37
2023/01/07 12:19:19;;;;;;;1.30;0.63;;;14.60;1.00;;;;;;5074590;28;20040;-38
2023/01/07 12:22:05;;;;;;;2.92;0.73;;;14.60;1.00;;;;;;5074573;28;20085;-38
2023/01/07 12:25:09;;;;;;;2.22;0.73;;;14.60;1.00;;;;;;5074252;28;20488;-37
2023/01/07 12:28:08;;;;;;;1.27;0.60;;;14.60;1.00;;;;;;5074250;28;20142;-38
2023/01/07 12:30:55;;;;;;;2.60;0.70;;;14.60;1.00;;;;;;5074328;28;20043;-38
2023/01/07 12:33:34;;;;;;;2.78;0.70;;;14.60;1.00;;;;;;5074096;28;20037;-37
2023/01/07 12:36:10;;;;;;;1.70;0.80;;;14.60;1.00;;;;;;5056443;28;20047;-37
2023/01/07 12:38:52;;;;;;;2.25;0.63;;;14.60;1.00;;;;;;5074135;28;20463;-38
2023/01/07 12:41:26;;;;;;;3.75;0.80;;;14.60;1.00;;;;;;5074178;28;20044;-38
2023/01/07 12:44:01;;;;;;;1.77;0.65;;;14.60;1.00;;;;;;5073967;28;20496;-37
2023/01/07 12:47:06;;;;;;;2.08;0.88;;;14.60;1.00;;;;;;5073949;28;20075;-37
2023/01/07 12:50:11;;;;;;;1.83;0.95;;;14.60;1.00;;;;;;5074155;28;20534;-38
2023/01/07 12:52:42;;;;;;;1.80;0.70;;;14.60;1.00;;;;;;5073655;28;20102;-38
2023/01/07 12:55:20;;;;;;;1.30;0.60;;;14.60;1.00;;;;;;5055922;28;20105;-37
2023/01/07 12:58:05;;;;;;;1.52;0.63;;;14.60;1.00;;;;;;5073886;28;20047;-38
2023/01/07 13:00:41;;;;;;;1.63;0.80;;;14.60;1.00;;;;;;5073807;28;20040;-37
2023/01/07 13:03:18;;;;;;;2.47;0.82;;;14.60;1.00;;;;;;5073511;28;20389;-37
2023/01/07 13:05:55;;;;;;;1.58;0.57;;;14.60;1.00;;;;;;5073657;28;20040;-37
2023/01/07 13:08:39;;;;;;;2.03;0.93;;;14.60;1.00;;;;;;5073602;28;20041;-36
2023/01/07 13:12:41;;;;;;;1.00;0.47;;;14.60;1.00;;;;;;5073627;28;20064;-37
2023/01/07 13:14:24;;;;;;;1.10;0.50;;;14.60;1.00;;;;;;5073213;28;20128;-37
2023/01/07 13:16:50;;;;;;;1.05;0.63;;;14.60;1.00;;;;;;5073474;28;20033;-38
2023/01/07 13:19:17;;;;;;;1.23;0.52;;;14.60;1.00;;;;;;5073539;28;20052;-38
2023/01/07 13:21:47;;;;;;;1.40;0.63;;;14.60;1.00;;;;;;5073386;28;20041;-38
2023/01/07 13:24:33;;;;;;;1.10;0.68;;;14.60;1.00;;;;;;5072912;28;20105;-38
2023/01/07 13:27:58;;;;;;;1.92;0.70;;;14.60;1.00;;;;;;5058235;28;20044;-37
2023/01/07 13:31:04;;;;;;;1.02;0.60;;;14.60;1.00;;;;;;5072990;28;20047;-37